sensor_id;sensor_type;location;lat;lon;timestamp;P1;durP1;ratioP1;P2;durP2;ratioP2
11113;SDS011;5610;52.154;9.198;2022-09-09T00:02:30;2.27;;;1.60;;
11113;SDS011;5610;52.154;9.198;2022-09-09T00:05:19;2.83;;;1.57;;
11113;SDS011;5610;52.154;9.198;2022-09-09T00:08:15;2.10;;;1.90;;
11113;SDS011;5610;52.154;9.198;2022-09-09T00:11:05;4.33;;;2.20;;
11113;SDS011;5610;52.154;9.198;2022-09-09T00:13:54;2.87;;;1.93;;
11113;SDS011;5610;52.154;9.198;2022-09-09T00:16:44;1.70;;;1.50;;
11113;SDS011;5610;52.154;9.198;2022-09-09T00:19:37;3.13;;;1.93;;
11113;SDS011;5610;52.154;9.198;2022-09-09T00:22:30;2.17;;;1.80;;
11113;SDS011;5610;52.154;9.198;2022-09-09T00:25:19;3.97;;;2.00;;
11113;SDS011;5610;52.154;9.198;2022-09-09T00:28:10;3.40;;;2.27;;
11113;SDS011;5610;52.154;9.198;2022-09-09T00:31:07;3.40;;;1.90;;
11113;SDS011;5610;52.154;9.198;2022-09-09T00:33:58;2.50;;;1.70;;
11113;SDS011;5610;52.154;9.198;2022-09-09T00:36:56;2.93;;;2.00;;
11113;SDS011;5610;52.154;9.198;2022-09-09T00:39:44;4.93;;;2.13;;
11113;SDS011;5610;52.154;9.198;2022-09-09T00:42:33;4.47;;;1.80;;
11113;SDS011;5610;52.154;9.198;2022-09-09T00:45:31;4.13;;;1.97;;
11113;SDS011;5610;52.154;9.198;2022-09-09T00:48:29;4.17;;;1.90;;
11113;SDS011;5610;52.154;9.198;2022-09-09T00:51:25;3.70;;;2.70;;
11113;SDS011;5610;52.154;9.198;2022-09-09T00:54:26;3.00;;;1.97;;
11113;SDS011;5610;52.154;9.198;2022-09-09T00:57:23;5.73;;;1.90;;
11113;SDS011;5610;52.154;9.198;2022-09-09T01:00:16;2.97;;;2.00;;
11113;SDS011;5610;52.154;9.198;2022-09-09T01:03:12;2.63;;;2.00;;
11113;SDS011;5610;52.154;9.198;2022-09-09T01:06:13;3.83;;;2.03;;
11113;SDS011;5610;52.154;9.198;2022-09-09T01:09:07;2.23;;;1.90;;
11113;SDS011;5610;52.154;9.198;2022-09-09T01:11:59;3.43;;;1.53;;
11113;SDS011;5610;52.154;9.198;2022-09-09T01:14:51;4.33;;;1.87;;
11113;SDS011;5610;52.154;9.198;2022-09-09T01:17:46;3.13;;;2.10;;
11113;SDS011;5610;52.154;9.198;2022-09-09T01:20:37;2.90;;;1.73;;
11113;SDS011;5610;52.154;9.198;2022-09-09T01:26:52;3.00;;;1.87;;
11113;SDS011;5610;52.154;9.198;2022-09-09T01:29:43;2.80;;;1.87;;
11113;SDS011;5610;52.154;9.198;2022-09-09T01:32:40;2.43;;;2.00;;
11113;SDS011;5610;52.154;9.198;2022-09-09T01:35:37;2.73;;;1.67;;
11113;SDS011;5610;52.154;9.198;2022-09-09T01:38:27;4.53;;;1.83;;
11113;SDS011;5610;52.154;9.198;2022-09-09T01:41:14;3.17;;;1.80;;
11113;SDS011;5610;52.154;9.198;2022-09-09T01:44:08;5.90;;;2.20;;
11113;SDS011;5610;52.154;9.198;2022-09-09T01:46:56;4.20;;;2.00;;
11113;SDS011;5610;52.154;9.198;2022-09-09T01:49:41;2.77;;;2.00;;
11113;SDS011;5610;52.154;9.198;2022-09-09T01:52:36;4.77;;;2.27;;
11113;SDS011;5610;52.154;9.198;2022-09-09T01:55:28;2.03;;;1.80;;
11113;SDS011;5610;52.154;9.198;2022-09-09T01:58:18;2.60;;;2.07;;
11113;SDS011;5610;52.154;9.198;2022-09-09T02:01:15;2.00;;;1.70;;
11113;SDS011;5610;52.154;9.198;2022-09-09T02:04:13;4.03;;;2.20;;
11113;SDS011;5610;52.154;9.198;2022-09-09T02:07:13;4.00;;;1.90;;
11113;SDS011;5610;52.154;9.198;2022-09-09T02:10:09;2.07;;;1.87;;
11113;SDS011;5610;52.154;9.198;2022-09-09T02:13:01;2.37;;;1.70;;
11113;SDS011;5610;52.154;9.198;2022-09-09T02:15:53;4.37;;;1.67;;
11113;SDS011;5610;52.154;9.198;2022-09-09T02:18:47;2.87;;;1.63;;
11113;SDS011;5610;52.154;9.198;2022-09-09T02:21:39;2.00;;;1.73;;
11113;SDS011;5610;52.154;9.198;2022-09-09T02:24:29;2.20;;;1.70;;
11113;SDS011;5610;52.154;9.198;2022-09-09T02:27:37;5.13;;;2.03;;
11113;SDS011;5610;52.154;9.198;2022-09-09T02:30:24;2.43;;;2.10;;
11113;SDS011;5610;52.154;9.198;2022-09-09T02:33:14;3.13;;;1.53;;
11113;SDS011;5610;52.154;9.198;2022-09-09T02:36:08;3.07;;;1.60;;
11113;SDS011;5610;52.154;9.198;2022-09-09T02:38:58;1.90;;;1.63;;
11113;SDS011;5610;52.154;9.198;2022-09-09T02:41:48;2.30;;;1.60;;
11113;SDS011;5610;52.154;9.198;2022-09-09T02:44:33;4.97;;;1.50;;
11113;SDS011;5610;52.154;9.198;2022-09-09T02:47:23;4.50;;;1.77;;
11113;SDS011;5610;52.154;9.198;2022-09-09T02:50:19;5.07;;;1.87;;
11113;SDS011;5610;52.154;9.198;2022-09-09T02:53:12;1.93;;;1.33;;
11113;SDS011;5610;52.154;9.198;2022-09-09T02:56:04;3.50;;;1.67;;
11113;SDS011;5610;52.154;9.198;2022-09-09T02:58:55;5.13;;;2.30;;
11113;SDS011;5610;52.154;9.198;2022-09-09T03:01:41;3.20;;;1.80;;
11113;SDS011;5610;52.154;9.198;2022-09-09T03:04:28;3.00;;;1.87;;
11113;SDS011;5610;52.154;9.198;2022-09-09T03:07:14;2.67;;;1.63;;
11113;SDS011;5610;52.154;9.198;2022-09-09T03:10:03;2.57;;;1.77;;
11113;SDS011;5610;52.154;9.198;2022-09-09T03:12:49;2.50;;;1.50;;
11113;SDS011;5610;52.154;9.198;2022-09-09T03:15:35;4.37;;;1.80;;
11113;SDS011;5610;52.154;9.198;2022-09-09T03:18:22;2.27;;;1.40;;
11113;SDS011;5610;52.154;9.198;2022-09-09T03:21:10;8.23;;;2.67;;
11113;SDS011;5610;52.154;9.198;2022-09-09T03:23:56;3.23;;;1.90;;
11113;SDS011;5610;52.154;9.198;2022-09-09T03:26:43;2.50;;;1.93;;
11113;SDS011;5610;52.154;9.198;2022-09-09T03:29:31;3.17;;;1.80;;
11113;SDS011;5610;52.154;9.198;2022-09-09T03:32:19;3.33;;;1.70;;
11113;SDS011;5610;52.154;9.198;2022-09-09T03:35:07;1.93;;;1.70;;
11113;SDS011;5610;52.154;9.198;2022-09-09T03:37:53;7.80;;;1.93;;
11113;SDS011;5610;52.154;9.198;2022-09-09T03:40:38;3.50;;;1.60;;
11113;SDS011;5610;52.154;9.198;2022-09-09T03:43:25;2.63;;;1.70;;
11113;SDS011;5610;52.154;9.198;2022-09-09T03:46:11;4.10;;;1.70;;
11113;SDS011;5610;52.154;9.198;2022-09-09T03:48:57;6.53;;;2.23;;
11113;SDS011;5610;52.154;9.198;2022-09-09T03:51:42;2.63;;;1.90;;
11113;SDS011;5610;52.154;9.198;2022-09-09T03:54:30;4.30;;;1.87;;
11113;SDS011;5610;52.154;9.198;2022-09-09T03:57:15;4.40;;;2.07;;
11113;SDS011;5610;52.154;9.198;2022-09-09T04:00:03;5.43;;;2.00;;
11113;SDS011;5610;52.154;9.198;2022-09-09T04:02:59;2.77;;;1.43;;
11113;SDS011;5610;52.154;9.198;2022-09-09T04:05:46;2.87;;;2.00;;
11113;SDS011;5610;52.154;9.198;2022-09-09T04:08:33;3.23;;;1.83;;
11113;SDS011;5610;52.154;9.198;2022-09-09T04:11:19;1.90;;;1.70;;
11113;SDS011;5610;52.154;9.198;2022-09-09T04:14:07;2.33;;;1.80;;
11113;SDS011;5610;52.154;9.198;2022-09-09T04:16:54;5.40;;;1.93;;
11113;SDS011;5610;52.154;9.198;2022-09-09T04:19:43;3.20;;;2.00;;
11113;SDS011;5610;52.154;9.198;2022-09-09T04:22:28;3.10;;;1.90;;
11113;SDS011;5610;52.154;9.198;2022-09-09T04:25:13;6.50;;;2.83;;
11113;SDS011;5610;52.154;9.198;2022-09-09T04:27:58;7.00;;;2.30;;
11113;SDS011;5610;52.154;9.198;2022-09-09T04:30:45;3.63;;;2.00;;
11113;SDS011;5610;52.154;9.198;2022-09-09T04:33:32;4.63;;;2.13;;
11113;SDS011;5610;52.154;9.198;2022-09-09T04:36:18;4.53;;;2.60;;
11113;SDS011;5610;52.154;9.198;2022-09-09T04:39:06;6.57;;;2.03;;
11113;SDS011;5610;52.154;9.198;2022-09-09T04:41:51;3.67;;;1.87;;
11113;SDS011;5610;52.154;9.198;2022-09-09T04:44:39;7.50;;;2.37;;
11113;SDS011;5610;52.154;9.198;2022-09-09T04:47:25;6.13;;;2.23;;
11113;SDS011;5610;52.154;9.198;2022-09-09T04:50:12;2.80;;;1.90;;
11113;SDS011;5610;52.154;9.198;2022-09-09T04:52:59;7.60;;;2.70;;
11113;SDS011;5610;52.154;9.198;2022-09-09T04:55:46;4.50;;;2.77;;
11113;SDS011;5610;52.154;9.198;2022-09-09T04:58:32;4.70;;;2.20;;
11113;SDS011;5610;52.154;9.198;2022-09-09T05:01:17;4.33;;;2.10;;
11113;SDS011;5610;52.154;9.198;2022-09-09T05:04:06;4.00;;;2.43;;
11113;SDS011;5610;52.154;9.198;2022-09-09T05:06:53;4.10;;;2.43;;
11113;SDS011;5610;52.154;9.198;2022-09-09T05:09:40;3.60;;;2.17;;
11113;SDS011;5610;52.154;9.198;2022-09-09T05:12:26;8.60;;;2.47;;
11113;SDS011;5610;52.154;9.198;2022-09-09T05:15:13;3.23;;;2.20;;
11113;SDS011;5610;52.154;9.198;2022-09-09T05:17:58;4.70;;;2.13;;
11113;SDS011;5610;52.154;9.198;2022-09-09T05:20:46;3.17;;;2.40;;
11113;SDS011;5610;52.154;9.198;2022-09-09T05:23:32;4.17;;;2.60;;
11113;SDS011;5610;52.154;9.198;2022-09-09T05:26:18;3.27;;;2.03;;
11113;SDS011;5610;52.154;9.198;2022-09-09T05:29:06;3.97;;;2.17;;
11113;SDS011;5610;52.154;9.198;2022-09-09T05:31:52;5.20;;;2.30;;
11113;SDS011;5610;52.154;9.198;2022-09-09T05:34:38;2.63;;;2.30;;
11113;SDS011;5610;52.154;9.198;2022-09-09T05:37:24;3.87;;;2.13;;
11113;SDS011;5610;52.154;9.198;2022-09-09T05:40:11;3.97;;;2.57;;
11113;SDS011;5610;52.154;9.198;2022-09-09T05:42:59;4.00;;;2.43;;
11113;SDS011;5610;52.154;9.198;2022-09-09T05:45:45;5.10;;;2.70;;
11113;SDS011;5610;52.154;9.198;2022-09-09T05:48:32;3.83;;;2.40;;
11113;SDS011;5610;52.154;9.198;2022-09-09T05:51:20;3.20;;;2.33;;
11113;SDS011;5610;52.154;9.198;2022-09-09T05:54:07;5.10;;;2.77;;
11113;SDS011;5610;52.154;9.198;2022-09-09T05:56:58;5.83;;;3.13;;
11113;SDS011;5610;52.154;9.198;2022-09-09T05:59:43;4.07;;;2.20;;
11113;SDS011;5610;52.154;9.198;2022-09-09T06:02:30;4.10;;;2.50;;
11113;SDS011;5610;52.154;9.198;2022-09-09T06:05:17;3.23;;;2.73;;
11113;SDS011;5610;52.154;9.198;2022-09-09T06:08:03;6.37;;;3.10;;
11113;SDS011;5610;52.154;9.198;2022-09-09T06:10:49;3.60;;;2.13;;
11113;SDS011;5610;52.154;9.198;2022-09-09T06:13:36;3.80;;;2.13;;
11113;SDS011;5610;52.154;9.198;2022-09-09T06:16:24;3.37;;;2.47;;
11113;SDS011;5610;52.154;9.198;2022-09-09T06:19:11;5.53;;;2.83;;
11113;SDS011;5610;52.154;9.198;2022-09-09T06:21:57;3.63;;;2.13;;
11113;SDS011;5610;52.154;9.198;2022-09-09T06:24:44;3.83;;;1.90;;
11113;SDS011;5610;52.154;9.198;2022-09-09T06:27:29;4.00;;;2.10;;
11113;SDS011;5610;52.154;9.198;2022-09-09T06:30:16;3.10;;;2.20;;
11113;SDS011;5610;52.154;9.198;2022-09-09T06:33:02;5.07;;;2.30;;
11113;SDS011;5610;52.154;9.198;2022-09-09T06:35:50;4.37;;;2.00;;
11113;SDS011;5610;52.154;9.198;2022-09-09T06:38:38;5.63;;;2.47;;
11113;SDS011;5610;52.154;9.198;2022-09-09T06:41:24;3.37;;;2.43;;
11113;SDS011;5610;52.154;9.198;2022-09-09T06:44:11;5.20;;;2.40;;
11113;SDS011;5610;52.154;9.198;2022-09-09T06:47:00;3.47;;;2.40;;
11113;SDS011;5610;52.154;9.198;2022-09-09T06:49:46;3.37;;;2.00;;
11113;SDS011;5610;52.154;9.198;2022-09-09T06:52:31;3.97;;;2.10;;
11113;SDS011;5610;52.154;9.198;2022-09-09T06:55:18;4.47;;;2.40;;
11113;SDS011;5610;52.154;9.198;2022-09-09T06:58:07;5.70;;;2.23;;
11113;SDS011;5610;52.154;9.198;2022-09-09T07:00:53;4.30;;;2.13;;
11113;SDS011;5610;52.154;9.198;2022-09-09T07:03:49;2.73;;;1.83;;
11113;SDS011;5610;52.154;9.198;2022-09-09T07:06:36;4.20;;;1.57;;
11113;SDS011;5610;52.154;9.198;2022-09-09T07:09:24;6.90;;;1.73;;
11113;SDS011;5610;52.154;9.198;2022-09-09T07:12:11;3.57;;;2.20;;
11113;SDS011;5610;52.154;9.198;2022-09-09T07:15:04;3.50;;;1.70;;
11113;SDS011;5610;52.154;9.198;2022-09-09T07:17:50;5.23;;;1.90;;
11113;SDS011;5610;52.154;9.198;2022-09-09T07:20:38;3.37;;;1.33;;
11113;SDS011;5610;52.154;9.198;2022-09-09T07:23:23;4.60;;;1.50;;
11113;SDS011;5610;52.154;9.198;2022-09-09T07:26:09;2.70;;;1.47;;
11113;SDS011;5610;52.154;9.198;2022-09-09T07:28:56;5.40;;;1.80;;
11113;SDS011;5610;52.154;9.198;2022-09-09T07:31:41;3.27;;;1.37;;
11113;SDS011;5610;52.154;9.198;2022-09-09T07:34:35;3.90;;;1.77;;
11113;SDS011;5610;52.154;9.198;2022-09-09T07:37:21;4.20;;;1.90;;
11113;SDS011;5610;52.154;9.198;2022-09-09T07:40:08;3.77;;;2.00;;
11113;SDS011;5610;52.154;9.198;2022-09-09T07:42:54;3.27;;;1.60;;
11113;SDS011;5610;52.154;9.198;2022-09-09T07:45:39;5.20;;;1.90;;
11113;SDS011;5610;52.154;9.198;2022-09-09T07:48:25;4.80;;;1.67;;
11113;SDS011;5610;52.154;9.198;2022-09-09T07:51:11;4.23;;;1.53;;
11113;SDS011;5610;52.154;9.198;2022-09-09T07:54:05;7.23;;;2.03;;
11113;SDS011;5610;52.154;9.198;2022-09-09T07:56:55;5.53;;;1.80;;
11113;SDS011;5610;52.154;9.198;2022-09-09T07:59:44;4.23;;;1.57;;
11113;SDS011;5610;52.154;9.198;2022-09-09T08:02:30;2.93;;;1.53;;
11113;SDS011;5610;52.154;9.198;2022-09-09T08:05:16;3.17;;;1.70;;
11113;SDS011;5610;52.154;9.198;2022-09-09T08:08:02;5.57;;;1.27;;
11113;SDS011;5610;52.154;9.198;2022-09-09T08:10:49;4.13;;;1.60;;
11113;SDS011;5610;52.154;9.198;2022-09-09T08:13:35;8.60;;;1.97;;
11113;SDS011;5610;52.154;9.198;2022-09-09T08:16:23;5.17;;;1.97;;
11113;SDS011;5610;52.154;9.198;2022-09-09T08:19:09;4.10;;;1.90;;
11113;SDS011;5610;52.154;9.198;2022-09-09T08:21:56;3.60;;;1.50;;
11113;SDS011;5610;52.154;9.198;2022-09-09T08:24:41;3.57;;;1.93;;
11113;SDS011;5610;52.154;9.198;2022-09-09T08:27:28;2.77;;;1.63;;
11113;SDS011;5610;52.154;9.198;2022-09-09T08:30:13;4.70;;;1.40;;
11113;SDS011;5610;52.154;9.198;2022-09-09T08:32:59;6.20;;;1.50;;
11113;SDS011;5610;52.154;9.198;2022-09-09T08:35:49;4.70;;;1.70;;
11113;SDS011;5610;52.154;9.198;2022-09-09T08:38:35;3.47;;;1.67;;
11113;SDS011;5610;52.154;9.198;2022-09-09T08:41:34;5.77;;;1.67;;
11113;SDS011;5610;52.154;9.198;2022-09-09T08:44:41;7.27;;;1.90;;
11113;SDS011;5610;52.154;9.198;2022-09-09T08:47:39;4.33;;;1.77;;
11113;SDS011;5610;52.154;9.198;2022-09-09T08:50:39;4.50;;;1.70;;
11113;SDS011;5610;52.154;9.198;2022-09-09T08:53:34;3.30;;;1.60;;
11113;SDS011;5610;52.154;9.198;2022-09-09T08:56:27;4.97;;;1.53;;
11113;SDS011;5610;52.154;9.198;2022-09-09T08:59:17;3.73;;;1.60;;
11113;SDS011;5610;52.154;9.198;2022-09-09T09:02:07;3.37;;;1.67;;
11113;SDS011;5610;52.154;9.198;2022-09-09T09:05:09;5.50;;;1.77;;
11113;SDS011;5610;52.154;9.198;2022-09-09T09:08:05;3.10;;;1.50;;
11113;SDS011;5610;52.154;9.198;2022-09-09T09:11:01;4.20;;;1.67;;
11113;SDS011;5610;52.154;9.198;2022-09-09T09:13:48;2.73;;;1.50;;
11113;SDS011;5610;52.154;9.198;2022-09-09T09:16:40;3.80;;;1.47;;
11113;SDS011;5610;52.154;9.198;2022-09-09T09:19:35;3.60;;;2.10;;
11113;SDS011;5610;52.154;9.198;2022-09-09T09:22:26;3.10;;;1.73;;
11113;SDS011;5610;52.154;9.198;2022-09-09T09:25:22;2.50;;;1.53;;
11113;SDS011;5610;52.154;9.198;2022-09-09T09:28:15;2.77;;;1.20;;
11113;SDS011;5610;52.154;9.198;2022-09-09T09:31:04;3.97;;;1.60;;
11113;SDS011;5610;52.154;9.198;2022-09-09T09:33:54;7.57;;;1.83;;
11113;SDS011;5610;52.154;9.198;2022-09-09T09:36:44;3.50;;;1.53;;
11113;SDS011;5610;52.154;9.198;2022-09-09T09:39:37;2.97;;;1.63;;
11113;SDS011;5610;52.154;9.198;2022-09-09T09:42:23;4.43;;;1.63;;
11113;SDS011;5610;52.154;9.198;2022-09-09T09:45:14;3.93;;;1.53;;
11113;SDS011;5610;52.154;9.198;2022-09-09T09:48:02;2.70;;;1.50;;
11113;SDS011;5610;52.154;9.198;2022-09-09T09:50:51;2.93;;;1.40;;
11113;SDS011;5610;52.154;9.198;2022-09-09T09:53:40;2.83;;;1.50;;
11113;SDS011;5610;52.154;9.198;2022-09-09T09:56:28;3.53;;;1.40;;
11113;SDS011;5610;52.154;9.198;2022-09-09T09:59:21;4.97;;;1.53;;
11113;SDS011;5610;52.154;9.198;2022-09-09T10:02:15;4.30;;;1.50;;
11113;SDS011;5610;52.154;9.198;2022-09-09T10:05:08;2.97;;;1.70;;
11113;SDS011;5610;52.154;9.198;2022-09-09T10:08:02;2.67;;;1.30;;
11113;SDS011;5610;52.154;9.198;2022-09-09T10:10:54;3.70;;;1.70;;
11113;SDS011;5610;52.154;9.198;2022-09-09T10:13:49;3.70;;;1.47;;
11113;SDS011;5610;52.154;9.198;2022-09-09T10:16:46;6.83;;;1.90;;
11113;SDS011;5610;52.154;9.198;2022-09-09T10:19:45;4.33;;;1.50;;
11113;SDS011;5610;52.154;9.198;2022-09-09T10:22:44;3.10;;;1.50;;
11113;SDS011;5610;52.154;9.198;2022-09-09T10:25:38;6.87;;;1.50;;
11113;SDS011;5610;52.154;9.198;2022-09-09T10:28:46;3.13;;;1.17;;
11113;SDS011;5610;52.154;9.198;2022-09-09T10:31:46;5.30;;;1.43;;
11113;SDS011;5610;52.154;9.198;2022-09-09T10:34:47;3.37;;;1.23;;
11113;SDS011;5610;52.154;9.198;2022-09-09T10:37:42;5.03;;;1.53;;
11113;SDS011;5610;52.154;9.198;2022-09-09T10:40:38;4.97;;;1.37;;
11113;SDS011;5610;52.154;9.198;2022-09-09T10:43:32;3.90;;;1.57;;
11113;SDS011;5610;52.154;9.198;2022-09-09T10:46:39;3.00;;;1.13;;
11113;SDS011;5610;52.154;9.198;2022-09-09T10:49:47;3.90;;;1.10;;
11113;SDS011;5610;52.154;9.198;2022-09-09T10:52:46;2.67;;;1.20;;
11113;SDS011;5610;52.154;9.198;2022-09-09T10:55:39;3.50;;;1.20;;
11113;SDS011;5610;52.154;9.198;2022-09-09T10:58:30;7.10;;;1.50;;
11113;SDS011;5610;52.154;9.198;2022-09-09T11:01:22;9.50;;;2.63;;
11113;SDS011;5610;52.154;9.198;2022-09-09T11:04:10;8.00;;;2.50;;
11113;SDS011;5610;52.154;9.198;2022-09-09T11:07:02;5.33;;;1.80;;
11113;SDS011;5610;52.154;9.198;2022-09-09T11:09:54;7.40;;;2.30;;
11113;SDS011;5610;52.154;9.198;2022-09-09T11:12:46;5.63;;;1.80;;
11113;SDS011;5610;52.154;9.198;2022-09-09T11:15:36;6.97;;;2.50;;
11113;SDS011;5610;52.154;9.198;2022-09-09T11:18:28;5.90;;;1.97;;
11113;SDS011;5610;52.154;9.198;2022-09-09T11:21:17;5.80;;;2.47;;
11113;SDS011;5610;52.154;9.198;2022-09-09T11:24:09;5.83;;;2.10;;
11113;SDS011;5610;52.154;9.198;2022-09-09T11:27:00;5.80;;;2.20;;
11113;SDS011;5610;52.154;9.198;2022-09-09T11:29:55;5.60;;;2.23;;
11113;SDS011;5610;52.154;9.198;2022-09-09T11:32:58;4.03;;;2.10;;
11113;SDS011;5610;52.154;9.198;2022-09-09T11:35:58;6.97;;;1.83;;
11113;SDS011;5610;52.154;9.198;2022-09-09T11:38:56;5.30;;;1.80;;
11113;SDS011;5610;52.154;9.198;2022-09-09T11:41:47;7.53;;;2.00;;
11113;SDS011;5610;52.154;9.198;2022-09-09T11:44:33;3.07;;;1.70;;
11113;SDS011;5610;52.154;9.198;2022-09-09T11:47:22;4.30;;;1.50;;
11113;SDS011;5610;52.154;9.198;2022-09-09T11:50:27;4.20;;;1.50;;
11113;SDS011;5610;52.154;9.198;2022-09-09T11:53:20;3.13;;;1.63;;
11113;SDS011;5610;52.154;9.198;2022-09-09T11:56:10;3.27;;;1.43;;
11113;SDS011;5610;52.154;9.198;2022-09-09T11:58:59;3.67;;;1.20;;
11113;SDS011;5610;52.154;9.198;2022-09-09T12:01:49;3.03;;;1.23;;
11113;SDS011;5610;52.154;9.198;2022-09-09T12:04:40;2.73;;;0.90;;
11113;SDS011;5610;52.154;9.198;2022-09-09T12:07:33;3.03;;;1.13;;
11113;SDS011;5610;52.154;9.198;2022-09-09T12:10:25;2.37;;;1.30;;
11113;SDS011;5610;52.154;9.198;2022-09-09T12:13:16;1.90;;;0.87;;
11113;SDS011;5610;52.154;9.198;2022-09-09T12:16:02;5.47;;;1.20;;
11113;SDS011;5610;52.154;9.198;2022-09-09T12:18:49;3.70;;;1.10;;
11113;SDS011;5610;52.154;9.198;2022-09-09T12:21:36;1.93;;;0.90;;
11113;SDS011;5610;52.154;9.198;2022-09-09T12:24:30;2.43;;;1.10;;
11113;SDS011;5610;52.154;9.198;2022-09-09T12:27:23;3.50;;;1.20;;
11113;SDS011;5610;52.154;9.198;2022-09-09T12:30:14;3.67;;;1.10;;
11113;SDS011;5610;52.154;9.198;2022-09-09T12:33:01;3.30;;;1.13;;
11113;SDS011;5610;52.154;9.198;2022-09-09T12:35:49;2.87;;;1.10;;
11113;SDS011;5610;52.154;9.198;2022-09-09T12:38:40;2.03;;;1.00;;
11113;SDS011;5610;52.154;9.198;2022-09-09T12:41:27;1.63;;;1.00;;
11113;SDS011;5610;52.154;9.198;2022-09-09T12:44:14;4.07;;;1.30;;
11113;SDS011;5610;52.154;9.198;2022-09-09T12:47:00;4.47;;;1.20;;
11113;SDS011;5610;52.154;9.198;2022-09-09T12:49:47;2.73;;;1.10;;
11113;SDS011;5610;52.154;9.198;2022-09-09T12:52:35;2.37;;;0.70;;
11113;SDS011;5610;52.154;9.198;2022-09-09T12:55:24;2.73;;;1.13;;
11113;SDS011;5610;52.154;9.198;2022-09-09T12:58:13;2.40;;;1.20;;
11113;SDS011;5610;52.154;9.198;2022-09-09T13:01:04;3.40;;;1.33;;
11113;SDS011;5610;52.154;9.198;2022-09-09T13:03:51;2.50;;;1.20;;
11113;SDS011;5610;52.154;9.198;2022-09-09T13:06:37;4.97;;;1.70;;
11113;SDS011;5610;52.154;9.198;2022-09-09T13:09:22;3.60;;;1.57;;
11113;SDS011;5610;52.154;9.198;2022-09-09T13:12:10;4.93;;;1.63;;
11113;SDS011;5610;52.154;9.198;2022-09-09T13:14:59;4.10;;;1.50;;
11113;SDS011;5610;52.154;9.198;2022-09-09T13:17:50;4.20;;;1.60;;
11113;SDS011;5610;52.154;9.198;2022-09-09T13:20:37;3.47;;;1.30;;
11113;SDS011;5610;52.154;9.198;2022-09-09T13:23:24;4.27;;;1.37;;
11113;SDS011;5610;52.154;9.198;2022-09-09T13:26:20;3.53;;;1.33;;
11113;SDS011;5610;52.154;9.198;2022-09-09T13:29:08;2.13;;;1.03;;
11113;SDS011;5610;52.154;9.198;2022-09-09T13:32:03;3.53;;;1.40;;
11113;SDS011;5610;52.154;9.198;2022-09-09T13:34:52;5.63;;;1.60;;
11113;SDS011;5610;52.154;9.198;2022-09-09T13:37:38;2.97;;;1.50;;
11113;SDS011;5610;52.154;9.198;2022-09-09T13:40:25;4.53;;;1.20;;
11113;SDS011;5610;52.154;9.198;2022-09-09T13:43:12;3.00;;;1.47;;
11113;SDS011;5610;52.154;9.198;2022-09-09T13:46:05;2.23;;;1.00;;
11113;SDS011;5610;52.154;9.198;2022-09-09T13:49:18;4.23;;;1.40;;
11113;SDS011;5610;52.154;9.198;2022-09-09T13:52:09;3.63;;;1.30;;
11113;SDS011;5610;52.154;9.198;2022-09-09T13:54:57;3.50;;;1.30;;
11113;SDS011;5610;52.154;9.198;2022-09-09T13:57:49;3.03;;;1.10;;
11113;SDS011;5610;52.154;9.198;2022-09-09T14:00:35;5.70;;;1.40;;
11113;SDS011;5610;52.154;9.198;2022-09-09T14:03:21;4.60;;;1.40;;
11113;SDS011;5610;52.154;9.198;2022-09-09T14:06:06;2.83;;;1.50;;
11113;SDS011;5610;52.154;9.198;2022-09-09T14:08:53;4.27;;;1.30;;
11113;SDS011;5610;52.154;9.198;2022-09-09T14:11:39;2.40;;;1.30;;
11113;SDS011;5610;52.154;9.198;2022-09-09T14:14:24;2.83;;;0.83;;
11113;SDS011;5610;52.154;9.198;2022-09-09T14:17:10;3.10;;;1.10;;
11113;SDS011;5610;52.154;9.198;2022-09-09T14:19:55;2.40;;;1.17;;
11113;SDS011;5610;52.154;9.198;2022-09-09T14:22:41;2.83;;;1.33;;
11113;SDS011;5610;52.154;9.198;2022-09-09T14:25:29;2.50;;;1.00;;
11113;SDS011;5610;52.154;9.198;2022-09-09T14:28:15;2.83;;;1.17;;
11113;SDS011;5610;52.154;9.198;2022-09-09T14:31:00;3.43;;;1.80;;
11113;SDS011;5610;52.154;9.198;2022-09-09T14:33:47;3.13;;;1.30;;
11113;SDS011;5610;52.154;9.198;2022-09-09T14:36:33;5.97;;;1.80;;
11113;SDS011;5610;52.154;9.198;2022-09-09T14:39:19;3.87;;;1.20;;
11113;SDS011;5610;52.154;9.198;2022-09-09T14:42:06;3.63;;;1.30;;
11113;SDS011;5610;52.154;9.198;2022-09-09T14:44:52;2.50;;;1.00;;
11113;SDS011;5610;52.154;9.198;2022-09-09T14:47:37;2.60;;;1.30;;
11113;SDS011;5610;52.154;9.198;2022-09-09T14:50:23;2.60;;;1.07;;
11113;SDS011;5610;52.154;9.198;2022-09-09T14:53:09;2.10;;;0.87;;
11113;SDS011;5610;52.154;9.198;2022-09-09T14:56:02;3.67;;;1.30;;
11113;SDS011;5610;52.154;9.198;2022-09-09T14:58:49;3.47;;;1.30;;
11113;SDS011;5610;52.154;9.198;2022-09-09T15:01:36;5.50;;;1.50;;
11113;SDS011;5610;52.154;9.198;2022-09-09T15:04:21;4.00;;;1.37;;
11113;SDS011;5610;52.154;9.198;2022-09-09T15:07:07;2.93;;;1.13;;
11113;SDS011;5610;52.154;9.198;2022-09-09T15:09:52;3.30;;;1.17;;
11113;SDS011;5610;52.154;9.198;2022-09-09T15:12:38;3.77;;;1.33;;
11113;SDS011;5610;52.154;9.198;2022-09-09T15:15:24;2.70;;;1.00;;
11113;SDS011;5610;52.154;9.198;2022-09-09T15:18:10;2.30;;;1.27;;
11113;SDS011;5610;52.154;9.198;2022-09-09T15:20:56;6.00;;;1.07;;
11113;SDS011;5610;52.154;9.198;2022-09-09T15:23:42;2.00;;;1.10;;
11113;SDS011;5610;52.154;9.198;2022-09-09T15:26:28;3.73;;;1.23;;
11113;SDS011;5610;52.154;9.198;2022-09-09T15:29:13;3.00;;;1.40;;
11113;SDS011;5610;52.154;9.198;2022-09-09T15:32:00;5.40;;;1.43;;
11113;SDS011;5610;52.154;9.198;2022-09-09T15:34:45;3.70;;;1.10;;
11113;SDS011;5610;52.154;9.198;2022-09-09T15:37:31;3.40;;;1.20;;
11113;SDS011;5610;52.154;9.198;2022-09-09T15:40:16;3.13;;;0.90;;
11113;SDS011;5610;52.154;9.198;2022-09-09T15:43:01;2.20;;;1.03;;
11113;SDS011;5610;52.154;9.198;2022-09-09T15:45:51;1.63;;;1.10;;
11113;SDS011;5610;52.154;9.198;2022-09-09T15:48:43;3.70;;;0.97;;
11113;SDS011;5610;52.154;9.198;2022-09-09T15:51:29;3.70;;;1.20;;
11113;SDS011;5610;52.154;9.198;2022-09-09T15:54:16;3.37;;;1.10;;
11113;SDS011;5610;52.154;9.198;2022-09-09T15:57:03;2.47;;;1.07;;
11113;SDS011;5610;52.154;9.198;2022-09-09T15:59:49;3.60;;;1.20;;
11113;SDS011;5610;52.154;9.198;2022-09-09T16:02:34;5.07;;;1.70;;
11113;SDS011;5610;52.154;9.198;2022-09-09T16:05:21;3.77;;;1.13;;
11113;SDS011;5610;52.154;9.198;2022-09-09T16:08:06;2.33;;;0.90;;
11113;SDS011;5610;52.154;9.198;2022-09-09T16:10:52;3.30;;;1.10;;
11113;SDS011;5610;52.154;9.198;2022-09-09T16:13:38;2.13;;;1.07;;
11113;SDS011;5610;52.154;9.198;2022-09-09T16:16:24;1.90;;;1.10;;
11113;SDS011;5610;52.154;9.198;2022-09-09T16:19:11;1.30;;;0.90;;
11113;SDS011;5610;52.154;9.198;2022-09-09T16:21:58;3.60;;;1.20;;
11113;SDS011;5610;52.154;9.198;2022-09-09T16:24:44;5.17;;;1.10;;
11113;SDS011;5610;52.154;9.198;2022-09-09T16:27:29;3.63;;;1.10;;
11113;SDS011;5610;52.154;9.198;2022-09-09T16:30:14;5.40;;;1.60;;
11113;SDS011;5610;52.154;9.198;2022-09-09T16:32:59;2.90;;;1.00;;
11113;SDS011;5610;52.154;9.198;2022-09-09T16:35:44;2.00;;;0.90;;
11113;SDS011;5610;52.154;9.198;2022-09-09T16:38:31;2.40;;;1.03;;
11113;SDS011;5610;52.154;9.198;2022-09-09T16:41:16;3.00;;;0.93;;
11113;SDS011;5610;52.154;9.198;2022-09-09T16:44:03;4.73;;;1.53;;
11113;SDS011;5610;52.154;9.198;2022-09-09T16:46:49;2.83;;;1.07;;
11113;SDS011;5610;52.154;9.198;2022-09-09T16:49:35;1.40;;;0.87;;
11113;SDS011;5610;52.154;9.198;2022-09-09T16:52:22;3.20;;;1.17;;
11113;SDS011;5610;52.154;9.198;2022-09-09T16:55:09;2.33;;;1.00;;
11113;SDS011;5610;52.154;9.198;2022-09-09T16:57:54;2.80;;;1.00;;
11113;SDS011;5610;52.154;9.198;2022-09-09T17:00:39;2.00;;;0.93;;
11113;SDS011;5610;52.154;9.198;2022-09-09T17:03:24;2.27;;;1.03;;
11113;SDS011;5610;52.154;9.198;2022-09-09T17:06:10;5.70;;;1.43;;
11113;SDS011;5610;52.154;9.198;2022-09-09T17:08:56;4.40;;;1.27;;
11113;SDS011;5610;52.154;9.198;2022-09-09T17:11:44;2.77;;;1.20;;
11113;SDS011;5610;52.154;9.198;2022-09-09T17:14:31;4.13;;;1.20;;
11113;SDS011;5610;52.154;9.198;2022-09-09T17:17:16;3.40;;;1.37;;
11113;SDS011;5610;52.154;9.198;2022-09-09T17:20:02;5.37;;;1.43;;